sensor_id;sensor_type;location;lat;lon;timestamp;pressure;altitude;pressure_sealevel;temperature;humidity
41654;BME280;68687;52.030;7.110;2024-01-16T01:48:50;99982.53;;;-0.87;100.00
41654;BME280;68687;52.030;7.110;2024-01-16T01:51:24;99989.84;;;-0.79;100.00
41654;BME280;68687;52.030;7.110;2024-01-16T01:53:53;99993.66;;;-0.83;100.00
41654;BME280;68687;52.030;7.110;2024-01-16T02:09:25;100005.56;;;-0.89;100.00
41654;BME280;68687;52.030;7.110;2024-01-16T02:11:56;99979.47;;;-0.92;100.00
41654;BME280;68687;52.030;7.110;2024-01-16T02:14:21;99974.06;;;-0.90;100.00
41654;BME280;68687;52.030;7.110;2024-01-16T02:16:47;99973.69;;;-0.86;100.00
41654;BME280;68687;52.030;7.110;2024-01-16T02:19:25;99987.91;;;-0.77;100.00
41654;BME280;68687;52.030;7.110;2024-01-16T02:24:59;99963.19;;;-0.97;100.00
41654;BME280;68687;52.030;7.110;2024-01-16T02:27:27;100000.03;;;-0.86;100.00
41654;BME280;68687;52.030;7.110;2024-01-16T02:29:53;99968.09;;;-0.93;100.00
41654;BME280;68687;52.030;7.110;2024-01-16T02:32:21;100023.34;;;-0.70;100.00
41654;BME280;68687;52.030;7.110;2024-01-16T02:34:47;99985.41;;;-0.79;100.00
41654;BME280;68687;52.030;7.110;2024-01-16T02:37:25;99974.25;;;-1.03;100.00
41654;BME280;68687;52.030;7.110;2024-01-16T02:39:50;99986.91;;;-0.97;100.00
41654;BME280;68687;52.030;7.110;2024-01-16T02:42:16;99985.63;;;-1.14;100.00
41654;BME280;68687;52.030;7.110;2024-01-16T02:44:41;99988.00;;;-1.00;100.00
41654;BME280;68687;52.030;7.110;2024-01-16T02:47:06;99974.25;;;-1.14;100.00
41654;BME280;68687;52.030;7.110;2024-01-16T02:49:32;100000.53;;;-0.92;100.00
41654;BME280;68687;52.030;7.110;2024-01-16T02:51:58;99973.41;;;-1.04;100.00
41654;BME280;68687;52.030;7.110;2024-01-16T02:54:30;100002.00;;;-0.99;100.00
41654;BME280;68687;52.030;7.110;2024-01-16T02:57:22;100006.91;;;-0.95;100.00
41654;BME280;68687;52.030;7.110;2024-01-16T02:59:56;99997.38;;;-1.07;100.00
41654;BME280;68687;52.030;7.110;2024-01-16T03:02:22;100011.97;;;-1.14;100.00
41654;BME280;68687;52.030;7.110;2024-01-16T03:04:49;99967.31;;;-1.15;100.00
41654;BME280;68687;52.030;7.110;2024-01-16T03:07:15;99973.19;;;-1.12;100.00
41654;BME280;68687;52.030;7.110;2024-01-16T03:09:44;99998.53;;;-1.00;100.00
41654;BME280;68687;52.030;7.110;2024-01-16T03:12:09;100012.84;;;-0.81;100.00
41654;BME280;68687;52.030;7.110;2024-01-16T03:14:35;99999.56;;;-0.91;100.00
41654;BME280;68687;52.030;7.110;2024-01-16T03:30:48;100002.31;;;-0.81;100.00
41654;BME280;68687;52.030;7.110;2024-01-16T03:33:27;99999.03;;;-0.74;100.00
41654;BME280;68687;52.030;7.110;2024-01-16T03:35:53;99971.16;;;-0.87;100.00
41654;BME280;68687;52.030;7.110;2024-01-16T03:39:02;99994.19;;;-0.89;100.00
41654;BME280;68687;52.030;7.110;2024-01-16T03:41:28;99989.50;;;-0.86;100.00
41654;BME280;68687;52.030;7.110;2024-01-16T03:44:00;99988.91;;;-0.89;100.00
41654;BME280;68687;52.030;7.110;2024-01-16T03:46:29;99985.88;;;-0.85;100.00
41654;BME280;68687;52.030;7.110;2024-01-16T03:48:58;99985.06;;;-0.85;100.00
41654;BME280;68687;52.030;7.110;2024-01-16T03:51:24;99987.41;;;-1.03;100.00
41654;BME280;68687;52.030;7.110;2024-01-16T03:53:50;99990.19;;;-1.05;100.00
41654;BME280;68687;52.030;7.110;2024-01-16T04:27:18;100004.38;;;-0.64;100.00
41654;BME280;68687;52.030;7.110;2024-01-16T04:29:46;99992.69;;;-0.71;100.00
41654;BME280;68687;52.030;7.110;2024-01-16T04:32:36;99988.19;;;-0.80;100.00
41654;BME280;68687;52.030;7.110;2024-01-16T04:35:05;99995.94;;;-0.79;100.00
41654;BME280;68687;52.030;7.110;2024-01-16T06:04:57;99946.38;;;-0.64;100.00
41654;BME280;68687;52.030;7.110;2024-01-16T06:12:39;99972.34;;;-0.59;100.00
41654;BME280;68687;52.030;7.110;2024-01-16T06:15:06;99960.66;;;-0.67;100.00
41654;BME280;68687;52.030;7.110;2024-01-16T06:17:32;99965.59;;;-0.73;100.00
41654;BME280;68687;52.030;7.110;2024-01-16T06:20:07;99954.81;;;-0.70;100.00
41654;BME280;68687;52.030;7.110;2024-01-16T06:22:37;99947.16;;;-0.73;100.00
41654;BME280;68687;52.030;7.110;2024-01-16T06:29:15;99971.06;;;-0.65;100.00
41654;BME280;68687;52.030;7.110;2024-01-16T06:31:44;99952.53;;;-0.96;100.00
41654;BME280;68687;52.030;7.110;2024-01-16T06:34:47;99947.31;;;-0.86;100.00
41654;BME280;68687;52.030;7.110;2024-01-16T06:37:28;99947.25;;;-0.96;100.00
41654;BME280;68687;52.030;7.110;2024-01-16T06:40:15;99947.84;;;-0.92;100.00
41654;BME280;68687;52.030;7.110;2024-01-16T06:43:06;99959.44;;;-0.63;100.00
41654;BME280;68687;52.030;7.110;2024-01-16T07:23:33;99986.06;;;-0.66;100.00
41654;BME280;68687;52.030;7.110;2024-01-16T08:40:38;100035.25;;;-0.34;100.00
41654;BME280;68687;52.030;7.110;2024-01-16T08:43:06;100020.63;;;-0.27;100.00
41654;BME280;68687;52.030;7.110;2024-01-16T09:36:33;100029.84;;;-0.12;100.00
41654;BME280;68687;52.030;7.110;2024-01-16T09:39:04;100017.84;;;-0.25;100.00
41654;BME280;68687;52.030;7.110;2024-01-16T09:45:11;100038.47;;;-0.10;100.00
41654;BME280;68687;52.030;7.110;2024-01-16T09:48:23;100030.00;;;-0.13;100.00
41654;BME280;68687;52.030;7.110;2024-01-16T09:50:50;100031.69;;;-0.03;100.00
41654;BME280;68687;52.030;7.110;2024-01-16T09:53:18;100006.06;;;-0.21;100.00
41654;BME280;68687;52.030;7.110;2024-01-16T09:55:47;100037.38;;;-0.07;100.00
41654;BME280;68687;52.030;7.110;2024-01-16T09:58:23;100045.25;;;0.04;100.00
41654;BME280;68687;52.030;7.110;2024-01-16T10:00:58;100028.31;;;-0.14;100.00
41654;BME280;68687;52.030;7.110;2024-01-16T10:03:24;100041.25;;;-0.11;100.00
41654;BME280;68687;52.030;7.110;2024-01-16T10:05:50;100030.03;;;-0.04;100.00
41654;BME280;68687;52.030;7.110;2024-01-16T10:08:16;100016.50;;;-0.20;100.00
41654;BME280;68687;52.030;7.110;2024-01-16T11:00:56;100011.78;;;-0.16;100.00
41654;BME280;68687;52.030;7.110;2024-01-16T15:39:54;99851.88;;;-0.38;100.00
41654;BME280;68687;52.030;7.110;2024-01-16T15:42:30;99837.91;;;-0.59;100.00
41654;BME280;68687;52.030;7.110;2024-01-16T15:44:57;99837.06;;;-0.60;100.00
41654;BME280;68687;52.030;7.110;2024-01-16T15:47:29;99834.31;;;-0.58;100.00
41654;BME280;68687;52.030;7.110;2024-01-16T15:50:01;99846.22;;;-0.64;100.00
41654;BME280;68687;52.030;7.110;2024-01-16T15:52:55;99822.91;;;-0.69;100.00
41654;BME280;68687;52.030;7.110;2024-01-16T15:55:43;99845.06;;;-0.71;100.00
41654;BME280;68687;52.030;7.110;2024-01-16T15:58:33;99832.56;;;-0.79;100.00
41654;BME280;68687;52.030;7.110;2024-01-16T16:02:01;99839.88;;;-0.82;100.00
41654;BME280;68687;52.030;7.110;2024-01-16T16:04:37;99841.78;;;-0.84;100.00
41654;BME280;68687;52.030;7.110;2024-01-16T16:10:41;99851.06;;;-0.90;100.00
41654;BME280;68687;52.030;7.110;2024-01-16T16:14:03;99849.00;;;-0.86;100.00
41654;BME280;68687;52.030;7.110;2024-01-16T16:25:08;99857.38;;;-0.81;100.00
41654;BME280;68687;52.030;7.110;2024-01-16T16:27:34;99846.25;;;-1.06;100.00
41654;BME280;68687;52.030;7.110;2024-01-16T16:30:00;99848.38;;;-1.00;100.00
41654;BME280;68687;52.030;7.110;2024-01-16T16:32:25;99857.06;;;-1.09;100.00
41654;BME280;68687;52.030;7.110;2024-01-16T16:34:51;99869.91;;;-0.95;100.00
41654;BME280;68687;52.030;7.110;2024-01-16T16:39:52;99873.94;;;-1.11;100.00
41654;BME280;68687;52.030;7.110;2024-01-16T16:42:18;99858.91;;;-1.20;100.00
41654;BME280;68687;52.030;7.110;2024-01-16T16:44:48;99856.78;;;-1.27;100.00
41654;BME280;68687;52.030;7.110;2024-01-16T16:47:13;99860.25;;;-1.26;100.00
41654;BME280;68687;52.030;7.110;2024-01-16T16:49:40;99873.22;;;-1.13;100.00
41654;BME280;68687;52.030;7.110;2024-01-16T16:52:09;99888.56;;;-1.18;100.00
41654;BME280;68687;52.030;7.110;2024-01-16T16:54:35;99858.38;;;-1.35;100.00
41654;BME280;68687;52.030;7.110;2024-01-16T16:57:00;99867.00;;;-1.33;100.00
41654;BME280;68687;52.030;7.110;2024-01-16T16:59:26;99865.66;;;-1.39;100.00
41654;BME280;68687;52.030;7.110;2024-01-16T17:01:55;99882.03;;;-1.24;100.00
41654;BME280;68687;52.030;7.110;2024-01-16T17:04:21;99861.47;;;-1.30;100.00
41654;BME280;68687;52.030;7.110;2024-01-16T17:06:47;99872.03;;;-1.41;100.00
41654;BME280;68687;52.030;7.110;2024-01-16T17:09:16;99879.91;;;-1.30;100.00
41654;BME280;68687;52.030;7.110;2024-01-16T17:11:45;99880.03;;;-1.32;100.00
41654;BME280;68687;52.030;7.110;2024-01-16T17:14:14;99866.06;;;-1.43;100.00
41654;BME280;68687;52.030;7.110;2024-01-16T17:16:40;99875.38;;;-1.39;100.00
41654;BME280;68687;52.030;7.110;2024-01-16T17:19:07;99856.75;;;-1.47;100.00
41654;BME280;68687;52.030;7.110;2024-01-16T17:21:33;99857.50;;;-1.57;100.00
41654;BME280;68687;52.030;7.110;2024-01-16T17:23:59;99857.00;;;-1.50;100.00
41654;BME280;68687;52.030;7.110;2024-01-16T17:26:30;99867.84;;;-1.44;100.00
41654;BME280;68687;52.030;7.110;2024-01-16T17:28:56;99848.06;;;-1.59;100.00
41654;BME280;68687;52.030;7.110;2024-01-16T17:31:22;99856.66;;;-1.57;100.00
41654;BME280;68687;52.030;7.110;2024-01-16T17:33:48;99841.72;;;-1.57;100.00
41654;BME280;68687;52.030;7.110;2024-01-16T17:36:15;99833.34;;;-1.62;100.00
41654;BME280;68687;52.030;7.110;2024-01-16T17:38:41;99843.63;;;-1.59;100.00
41654;BME280;68687;52.030;7.110;2024-01-16T17:41:07;99834.78;;;-1.58;100.00
41654;BME280;68687;52.030;7.110;2024-01-16T17:43:33;99816.38;;;-1.69;100.00
41654;BME280;68687;52.030;7.110;2024-01-16T17:45:58;99819.59;;;-1.65;100.00
41654;BME280;68687;52.030;7.110;2024-01-16T17:48:24;99813.25;;;-1.63;100.00
41654;BME280;68687;52.030;7.110;2024-01-16T17:50:50;99826.31;;;-1.72;100.00
41654;BME280;68687;52.030;7.110;2024-01-16T17:53:18;99832.88;;;-1.67;100.00
41654;BME280;68687;52.030;7.110;2024-01-16T17:55:44;99825.69;;;-1.65;100.00
41654;BME280;68687;52.030;7.110;2024-01-16T17:58:10;99810.97;;;-1.67;100.00
41654;BME280;68687;52.030;7.110;2024-01-16T18:00:36;99820.19;;;-1.62;100.00
41654;BME280;68687;52.030;7.110;2024-01-16T18:03:03;99818.03;;;-1.68;100.00
41654;BME280;68687;52.030;7.110;2024-01-16T18:05:37;99795.63;;;-1.83;100.00
41654;BME280;68687;52.030;7.110;2024-01-16T19:26:56;99756.25;;;-2.05;100.00
41654;BME280;68687;52.030;7.110;2024-01-16T21:08:57;99650.03;;;-2.14;99.49
41654;BME280;68687;52.030;7.110;2024-01-16T21:11:23;99660.09;;;-2.19;99.63
41654;BME280;68687;52.030;7.110;2024-01-16T21:13:48;99661.91;;;-2.31;99.57
